sensor_id;sensor_type;location;lat;lon;timestamp;P1;durP1;ratioP1;P2;durP2;ratioP2
52786;SDS011;38661;53.152;5.846;2023-12-28T00:00:29;8.10;;;3.47;;
52786;SDS011;38661;53.152;5.846;2023-12-28T00:02:55;6.30;;;3.58;;
52786;SDS011;38661;53.152;5.846;2023-12-28T00:05:21;14.63;;;4.75;;
52786;SDS011;38661;53.152;5.846;2023-12-28T00:07:46;16.88;;;4.50;;
52786;SDS011;38661;53.152;5.846;2023-12-28T00:10:12;17.15;;;5.05;;
52786;SDS011;38661;53.152;5.846;2023-12-28T00:12:38;14.38;;;4.07;;
52786;SDS011;38661;53.152;5.846;2023-12-28T00:15:04;17.50;;;4.28;;
52786;SDS011;38661;53.152;5.846;2023-12-28T00:17:30;18.38;;;4.72;;
52786;SDS011;38661;53.152;5.846;2023-12-28T00:19:56;18.13;;;4.82;;
52786;SDS011;38661;53.152;5.846;2023-12-28T00:22:21;30.42;;;6.07;;
52786;SDS011;38661;53.152;5.846;2023-12-28T00:24:47;17.83;;;4.25;;
52786;SDS011;38661;53.152;5.846;2023-12-28T00:27:13;17.70;;;4.15;;
52786;SDS011;38661;53.152;5.846;2023-12-28T00:29:38;16.25;;;4.03;;
52786;SDS011;38661;53.152;5.846;2023-12-28T00:32:06;15.80;;;4.45;;
52786;SDS011;38661;53.152;5.846;2023-12-28T00:34:32;18.80;;;4.63;;
52786;SDS011;38661;53.152;5.846;2023-12-28T00:36:58;20.80;;;4.60;;
52786;SDS011;38661;53.152;5.846;2023-12-28T00:39:23;27.45;;;4.93;;
52786;SDS011;38661;53.152;5.846;2023-12-28T00:41:49;20.92;;;5.65;;
52786;SDS011;38661;53.152;5.846;2023-12-28T00:44:15;26.52;;;5.13;;
52786;SDS011;38661;53.152;5.846;2023-12-28T00:46:41;20.52;;;5.05;;
52786;SDS011;38661;53.152;5.846;2023-12-28T00:49:07;27.27;;;5.57;;
52786;SDS011;38661;53.152;5.846;2023-12-28T00:51:33;23.60;;;4.85;;
52786;SDS011;38661;53.152;5.846;2023-12-28T00:53:59;22.40;;;6.07;;
52786;SDS011;38661;53.152;5.846;2023-12-28T00:56:25;22.15;;;4.28;;
52786;SDS011;38661;53.152;5.846;2023-12-28T00:58:50;16.17;;;4.72;;
52786;SDS011;38661;53.152;5.846;2023-12-28T01:01:16;20.05;;;5.35;;
52786;SDS011;38661;53.152;5.846;2023-12-28T01:03:42;27.98;;;5.20;;
52786;SDS011;38661;53.152;5.846;2023-12-28T01:06:08;31.33;;;6.18;;
52786;SDS011;38661;53.152;5.846;2023-12-28T01:08:33;13.88;;;3.92;;
52786;SDS011;38661;53.152;5.846;2023-12-28T01:11:00;25.30;;;5.25;;
52786;SDS011;38661;53.152;5.846;2023-12-28T01:13:27;22.17;;;5.00;;
52786;SDS011;38661;53.152;5.846;2023-12-28T01:15:53;17.52;;;5.22;;
52786;SDS011;38661;53.152;5.846;2023-12-28T01:18:19;21.23;;;4.85;;
52786;SDS011;38661;53.152;5.846;2023-12-28T01:20:45;28.15;;;6.90;;
52786;SDS011;38661;53.152;5.846;2023-12-28T01:23:11;23.27;;;4.95;;
52786;SDS011;38661;53.152;5.846;2023-12-28T01:25:36;27.38;;;6.07;;
52786;SDS011;38661;53.152;5.846;2023-12-28T01:28:02;26.02;;;5.72;;
52786;SDS011;38661;53.152;5.846;2023-12-28T01:30:28;27.88;;;5.65;;
52786;SDS011;38661;53.152;5.846;2023-12-28T01:32:54;28.50;;;6.95;;
52786;SDS011;38661;53.152;5.846;2023-12-28T01:35:19;20.30;;;5.40;;
52786;SDS011;38661;53.152;5.846;2023-12-28T01:37:45;17.50;;;5.40;;
52786;SDS011;38661;53.152;5.846;2023-12-28T01:40:11;29.30;;;5.50;;
52786;SDS011;38661;53.152;5.846;2023-12-28T01:42:37;27.23;;;4.85;;
52786;SDS011;38661;53.152;5.846;2023-12-28T01:45:03;23.77;;;5.65;;
52786;SDS011;38661;53.152;5.846;2023-12-28T01:47:29;17.58;;;5.28;;
52786;SDS011;38661;53.152;5.846;2023-12-28T01:49:55;27.45;;;5.65;;
52786;SDS011;38661;53.152;5.846;2023-12-28T01:52:22;23.75;;;4.82;;
52786;SDS011;38661;53.152;5.846;2023-12-28T01:54:47;19.23;;;5.88;;
52786;SDS011;38661;53.152;5.846;2023-12-28T01:57:14;24.23;;;5.20;;
52786;SDS011;38661;53.152;5.846;2023-12-28T01:59:41;32.05;;;6.43;;
52786;SDS011;38661;53.152;5.846;2023-12-28T02:02:08;24.58;;;5.68;;
52786;SDS011;38661;53.152;5.846;2023-12-28T02:04:34;29.23;;;5.40;;
52786;SDS011;38661;53.152;5.846;2023-12-28T02:07:00;19.85;;;5.20;;
52786;SDS011;38661;53.152;5.846;2023-12-28T02:09:26;21.13;;;4.88;;
52786;SDS011;38661;53.152;5.846;2023-12-28T02:11:52;28.98;;;5.68;;
52786;SDS011;38661;53.152;5.846;2023-12-28T02:14:19;28.48;;;4.82;;
52786;SDS011;38661;53.152;5.846;2023-12-28T02:16:50;29.00;;;5.45;;
52786;SDS011;38661;53.152;5.846;2023-12-28T02:19:49;18.40;;;4.25;;
52786;SDS011;38661;53.152;5.846;2023-12-28T02:22:16;23.58;;;5.25;;
52786;SDS011;38661;53.152;5.846;2023-12-28T02:27:40;14.18;;;4.53;;
52786;SDS011;38661;53.152;5.846;2023-12-28T02:30:11;25.58;;;4.38;;
52786;SDS011;38661;53.152;5.846;2023-12-28T02:35:46;23.10;;;4.97;;
52786;SDS011;38661;53.152;5.846;2023-12-28T02:38:16;18.92;;;3.90;;
52786;SDS011;38661;53.152;5.846;2023-12-28T02:40:43;22.73;;;4.03;;
52786;SDS011;38661;53.152;5.846;2023-12-28T02:43:10;18.23;;;3.75;;
52786;SDS011;38661;53.152;5.846;2023-12-28T02:45:37;14.13;;;4.15;;
52786;SDS011;38661;53.152;5.846;2023-12-28T02:48:04;16.92;;;2.83;;
52786;SDS011;38661;53.152;5.846;2023-12-28T02:50:30;15.05;;;3.22;;
52786;SDS011;38661;53.152;5.846;2023-12-28T02:52:57;14.23;;;3.55;;
52786;SDS011;38661;53.152;5.846;2023-12-28T02:55:26;16.35;;;3.63;;
52786;SDS011;38661;53.152;5.846;2023-12-28T02:57:53;11.55;;;3.25;;
52786;SDS011;38661;53.152;5.846;2023-12-28T03:00:21;18.23;;;4.40;;
52786;SDS011;38661;53.152;5.846;2023-12-28T03:02:47;11.90;;;3.22;;
52786;SDS011;38661;53.152;5.846;2023-12-28T03:05:13;15.18;;;3.88;;
52786;SDS011;38661;53.152;5.846;2023-12-28T03:07:38;15.32;;;3.63;;
52786;SDS011;38661;53.152;5.846;2023-12-28T03:10:05;11.70;;;3.22;;
52786;SDS011;38661;53.152;5.846;2023-12-28T03:12:32;21.55;;;4.32;;
52786;SDS011;38661;53.152;5.846;2023-12-28T03:14:58;17.63;;;4.45;;
52786;SDS011;38661;53.152;5.846;2023-12-28T03:17:23;17.67;;;4.70;;
52786;SDS011;38661;53.152;5.846;2023-12-28T03:19:49;14.77;;;3.22;;
52786;SDS011;38661;53.152;5.846;2023-12-28T03:22:15;16.13;;;4.65;;
52786;SDS011;38661;53.152;5.846;2023-12-28T03:24:42;21.02;;;4.05;;
52786;SDS011;38661;53.152;5.846;2023-12-28T03:27:08;19.35;;;3.53;;
52786;SDS011;38661;53.152;5.846;2023-12-28T03:29:33;14.50;;;4.45;;
52786;SDS011;38661;53.152;5.846;2023-12-28T03:31:59;17.88;;;4.30;;
52786;SDS011;38661;53.152;5.846;2023-12-28T03:34:25;19.60;;;4.35;;
52786;SDS011;38661;53.152;5.846;2023-12-28T03:36:54;20.65;;;4.72;;
52786;SDS011;38661;53.152;5.846;2023-12-28T03:39:20;15.00;;;3.70;;
52786;SDS011;38661;53.152;5.846;2023-12-28T03:41:47;20.15;;;4.13;;
52786;SDS011;38661;53.152;5.846;2023-12-28T03:44:13;12.45;;;3.00;;
52786;SDS011;38661;53.152;5.846;2023-12-28T03:46:38;21.05;;;4.60;;
52786;SDS011;38661;53.152;5.846;2023-12-28T03:49:04;16.15;;;3.78;;
52786;SDS011;38661;53.152;5.846;2023-12-28T03:51:30;11.63;;;2.92;;
52786;SDS011;38661;53.152;5.846;2023-12-28T03:53:55;15.18;;;3.20;;
52786;SDS011;38661;53.152;5.846;2023-12-28T03:56:25;18.35;;;3.75;;
52786;SDS011;38661;53.152;5.846;2023-12-28T03:58:52;14.13;;;3.05;;
52786;SDS011;38661;53.152;5.846;2023-12-28T04:01:18;14.02;;;3.58;;
52786;SDS011;38661;53.152;5.846;2023-12-28T04:03:45;11.50;;;3.08;;
52786;SDS011;38661;53.152;5.846;2023-12-28T04:06:11;15.85;;;4.07;;
52786;SDS011;38661;53.152;5.846;2023-12-28T04:08:40;11.32;;;3.35;;
52786;SDS011;38661;53.152;5.846;2023-12-28T04:11:07;15.40;;;4.60;;
52786;SDS011;38661;53.152;5.846;2023-12-28T04:13:32;14.82;;;3.92;;
52786;SDS011;38661;53.152;5.846;2023-12-28T04:15:58;18.30;;;3.80;;
52786;SDS011;38661;53.152;5.846;2023-12-28T04:18:24;13.93;;;3.65;;
52786;SDS011;38661;53.152;5.846;2023-12-28T04:20:49;15.77;;;3.80;;
52786;SDS011;38661;53.152;5.846;2023-12-28T04:23:15;17.92;;;4.30;;
52786;SDS011;38661;53.152;5.846;2023-12-28T04:25:41;18.42;;;5.40;;
52786;SDS011;38661;53.152;5.846;2023-12-28T04:28:08;18.45;;;4.38;;
52786;SDS011;38661;53.152;5.846;2023-12-28T04:30:33;17.20;;;3.47;;
52786;SDS011;38661;53.152;5.846;2023-12-28T04:33:00;20.92;;;3.72;;
52786;SDS011;38661;53.152;5.846;2023-12-28T04:35:26;20.67;;;3.47;;
52786;SDS011;38661;53.152;5.846;2023-12-28T04:37:51;20.65;;;4.25;;
52786;SDS011;38661;53.152;5.846;2023-12-28T04:40:17;21.05;;;5.22;;
52786;SDS011;38661;53.152;5.846;2023-12-28T04:42:43;23.00;;;4.03;;
52786;SDS011;38661;53.152;5.846;2023-12-28T04:45:09;19.58;;;5.82;;
52786;SDS011;38661;53.152;5.846;2023-12-28T04:47:35;28.50;;;5.55;;
52786;SDS011;38661;53.152;5.846;2023-12-28T04:50:02;16.55;;;4.43;;
52786;SDS011;38661;53.152;5.846;2023-12-28T04:52:29;17.75;;;4.38;;
52786;SDS011;38661;53.152;5.846;2023-12-28T04:54:55;16.88;;;3.38;;
52786;SDS011;38661;53.152;5.846;2023-12-28T04:57:21;28.13;;;4.53;;
52786;SDS011;38661;53.152;5.846;2023-12-28T04:59:49;20.77;;;4.13;;
52786;SDS011;38661;53.152;5.846;2023-12-28T05:02:15;20.60;;;5.55;;
52786;SDS011;38661;53.152;5.846;2023-12-28T05:04:41;21.38;;;4.00;;
52786;SDS011;38661;53.152;5.846;2023-12-28T05:07:07;18.70;;;3.80;;
52786;SDS011;38661;53.152;5.846;2023-12-28T05:09:33;15.82;;;4.32;;
52786;SDS011;38661;53.152;5.846;2023-12-28T05:11:58;22.77;;;5.45;;
52786;SDS011;38661;53.152;5.846;2023-12-28T05:14:24;20.45;;;5.82;;
52786;SDS011;38661;53.152;5.846;2023-12-28T05:16:50;20.20;;;4.53;;
52786;SDS011;38661;53.152;5.846;2023-12-28T05:19:16;28.35;;;6.53;;
52786;SDS011;38661;53.152;5.846;2023-12-28T05:21:41;17.73;;;4.63;;
52786;SDS011;38661;53.152;5.846;2023-12-28T05:24:07;19.90;;;4.20;;
52786;SDS011;38661;53.152;5.846;2023-12-28T05:26:33;26.40;;;6.03;;
52786;SDS011;38661;53.152;5.846;2023-12-28T05:28:58;23.98;;;4.50;;
52786;SDS011;38661;53.152;5.846;2023-12-28T05:31:24;15.85;;;4.80;;
52786;SDS011;38661;53.152;5.846;2023-12-28T05:33:50;21.25;;;5.22;;
52786;SDS011;38661;53.152;5.846;2023-12-28T05:36:16;17.42;;;4.28;;
52786;SDS011;38661;53.152;5.846;2023-12-28T05:38:41;19.40;;;4.35;;
52786;SDS011;38661;53.152;5.846;2023-12-28T05:41:09;23.73;;;4.57;;
52786;SDS011;38661;53.152;5.846;2023-12-28T05:43:35;26.90;;;5.28;;
52786;SDS011;38661;53.152;5.846;2023-12-28T05:46:01;25.15;;;6.03;;
52786;SDS011;38661;53.152;5.846;2023-12-28T05:48:27;19.42;;;5.50;;
52786;SDS011;38661;53.152;5.846;2023-12-28T05:50:52;28.63;;;5.28;;
52786;SDS011;38661;53.152;5.846;2023-12-28T05:53:18;30.33;;;5.55;;
52786;SDS011;38661;53.152;5.846;2023-12-28T05:55:44;23.33;;;4.82;;
52786;SDS011;38661;53.152;5.846;2023-12-28T05:58:10;28.38;;;5.60;;
52786;SDS011;38661;53.152;5.846;2023-12-28T06:00:35;20.80;;;5.35;;
52786;SDS011;38661;53.152;5.846;2023-12-28T06:03:04;26.70;;;5.65;;
52786;SDS011;38661;53.152;5.846;2023-12-28T06:05:30;23.23;;;5.25;;
52786;SDS011;38661;53.152;5.846;2023-12-28T06:07:56;26.83;;;5.05;;
52786;SDS011;38661;53.152;5.846;2023-12-28T06:10:22;36.33;;;7.68;;
52786;SDS011;38661;53.152;5.846;2023-12-28T06:12:49;26.23;;;5.90;;
52786;SDS011;38661;53.152;5.846;2023-12-28T06:15:15;24.95;;;5.70;;
52786;SDS011;38661;53.152;5.846;2023-12-28T06:17:41;22.75;;;4.85;;
52786;SDS011;38661;53.152;5.846;2023-12-28T06:20:08;22.73;;;4.63;;
52786;SDS011;38661;53.152;5.846;2023-12-28T06:22:37;24.73;;;4.80;;
52786;SDS011;38661;53.152;5.846;2023-12-28T06:25:03;28.55;;;6.07;;
52786;SDS011;38661;53.152;5.846;2023-12-28T06:27:29;21.98;;;5.63;;
52786;SDS011;38661;53.152;5.846;2023-12-28T06:29:55;36.65;;;7.35;;
52786;SDS011;38661;53.152;5.846;2023-12-28T06:32:21;26.95;;;6.28;;
52786;SDS011;38661;53.152;5.846;2023-12-28T06:34:47;27.45;;;4.88;;
52786;SDS011;38661;53.152;5.846;2023-12-28T06:37:13;28.95;;;5.68;;
52786;SDS011;38661;53.152;5.846;2023-12-28T06:39:39;24.48;;;5.55;;
52786;SDS011;38661;53.152;5.846;2023-12-28T06:42:05;30.42;;;5.38;;
52786;SDS011;38661;53.152;5.846;2023-12-28T06:44:31;28.48;;;6.90;;
52786;SDS011;38661;53.152;5.846;2023-12-28T06:46:56;27.08;;;6.18;;
52786;SDS011;38661;53.152;5.846;2023-12-28T06:49:23;27.58;;;5.55;;
52786;SDS011;38661;53.152;5.846;2023-12-28T06:51:50;20.23;;;5.20;;
52786;SDS011;38661;53.152;5.846;2023-12-28T06:54:15;30.45;;;6.03;;
52786;SDS011;38661;53.152;5.846;2023-12-28T06:56:41;28.80;;;6.20;;
52786;SDS011;38661;53.152;5.846;2023-12-28T06:59:07;33.13;;;6.72;;
52786;SDS011;38661;53.152;5.846;2023-12-28T07:01:37;28.65;;;7.18;;
52786;SDS011;38661;53.152;5.846;2023-12-28T07:04:03;29.25;;;5.80;;
52786;SDS011;38661;53.152;5.846;2023-12-28T07:06:29;35.50;;;7.47;;
52786;SDS011;38661;53.152;5.846;2023-12-28T07:08:55;31.60;;;5.47;;
52786;SDS011;38661;53.152;5.846;2023-12-28T07:11:20;34.38;;;7.32;;
52786;SDS011;38661;53.152;5.846;2023-12-28T07:13:47;31.23;;;5.78;;
52786;SDS011;38661;53.152;5.846;2023-12-28T07:16:12;28.35;;;5.45;;
52786;SDS011;38661;53.152;5.846;2023-12-28T07:18:38;21.13;;;5.63;;
52786;SDS011;38661;53.152;5.846;2023-12-28T07:21:04;25.60;;;4.72;;
52786;SDS011;38661;53.152;5.846;2023-12-28T07:23:31;32.63;;;8.23;;
52786;SDS011;38661;53.152;5.846;2023-12-28T07:25:57;39.38;;;7.82;;
52786;SDS011;38661;53.152;5.846;2023-12-28T07:28:22;29.92;;;6.53;;
52786;SDS011;38661;53.152;5.846;2023-12-28T07:30:48;34.05;;;7.47;;
52786;SDS011;38661;53.152;5.846;2023-12-28T07:33:14;32.20;;;6.47;;
52786;SDS011;38661;53.152;5.846;2023-12-28T07:35:39;38.60;;;7.80;;
52786;SDS011;38661;53.152;5.846;2023-12-28T07:38:05;30.98;;;8.43;;
52786;SDS011;38661;53.152;5.846;2023-12-28T07:40:31;25.70;;;7.05;;
52786;SDS011;38661;53.152;5.846;2023-12-28T07:42:56;26.90;;;7.50;;
52786;SDS011;38661;53.152;5.846;2023-12-28T07:45:22;20.65;;;5.43;;
52786;SDS011;38661;53.152;5.846;2023-12-28T07:47:49;29.30;;;6.97;;
52786;SDS011;38661;53.152;5.846;2023-12-28T07:50:16;29.55;;;5.70;;
52786;SDS011;38661;53.152;5.846;2023-12-28T07:52:42;29.10;;;7.22;;
52786;SDS011;38661;53.152;5.846;2023-12-28T07:55:08;31.25;;;9.85;;
52786;SDS011;38661;53.152;5.846;2023-12-28T07:57:34;36.65;;;8.00;;
52786;SDS011;38661;53.152;5.846;2023-12-28T08:00:02;42.17;;;8.77;;
52786;SDS011;38661;53.152;5.846;2023-12-28T08:02:28;36.33;;;8.45;;
52786;SDS011;38661;53.152;5.846;2023-12-28T08:04:54;38.70;;;8.95;;
52786;SDS011;38661;53.152;5.846;2023-12-28T08:07:20;34.97;;;8.77;;
52786;SDS011;38661;53.152;5.846;2023-12-28T08:09:45;39.83;;;8.35;;
52786;SDS011;38661;53.152;5.846;2023-12-28T08:12:11;39.30;;;7.93;;
52786;SDS011;38661;53.152;5.846;2023-12-28T08:14:37;40.25;;;6.85;;
52786;SDS011;38661;53.152;5.846;2023-12-28T08:17:02;40.92;;;6.70;;
52786;SDS011;38661;53.152;5.846;2023-12-28T08:19:28;36.13;;;7.32;;
52786;SDS011;38661;53.152;5.846;2023-12-28T08:21:54;36.00;;;7.03;;
52786;SDS011;38661;53.152;5.846;2023-12-28T08:24:20;26.02;;;8.48;;
52786;SDS011;38661;53.152;5.846;2023-12-28T08:26:46;34.10;;;7.72;;
52786;SDS011;38661;53.152;5.846;2023-12-28T08:29:12;28.40;;;7.30;;
52786;SDS011;38661;53.152;5.846;2023-12-28T08:31:38;39.90;;;9.50;;
52786;SDS011;38661;53.152;5.846;2023-12-28T08:34:03;40.15;;;8.38;;
52786;SDS011;38661;53.152;5.846;2023-12-28T08:36:29;31.90;;;8.75;;
52786;SDS011;38661;53.152;5.846;2023-12-28T08:38:55;35.42;;;7.57;;
52786;SDS011;38661;53.152;5.846;2023-12-28T08:41:21;44.75;;;9.32;;
52786;SDS011;38661;53.152;5.846;2023-12-28T08:43:49;33.63;;;7.47;;
52786;SDS011;38661;53.152;5.846;2023-12-28T08:46:15;34.17;;;7.30;;
52786;SDS011;38661;53.152;5.846;2023-12-28T08:48:44;41.28;;;9.30;;
52786;SDS011;38661;53.152;5.846;2023-12-28T08:51:10;34.00;;;7.97;;
52786;SDS011;38661;53.152;5.846;2023-12-28T08:53:36;33.95;;;8.50;;
52786;SDS011;38661;53.152;5.846;2023-12-28T08:56:03;35.83;;;8.75;;
52786;SDS011;38661;53.152;5.846;2023-12-28T08:58:41;32.78;;;7.82;;
52786;SDS011;38661;53.152;5.846;2023-12-28T09:01:07;35.55;;;8.05;;
52786;SDS011;38661;53.152;5.846;2023-12-28T09:03:33;30.67;;;7.50;;
52786;SDS011;38661;53.152;5.846;2023-12-28T09:05:58;36.70;;;8.90;;
52786;SDS011;38661;53.152;5.846;2023-12-28T09:08:24;42.40;;;10.15;;
52786;SDS011;38661;53.152;5.846;2023-12-28T09:10:49;32.70;;;8.10;;
52786;SDS011;38661;53.152;5.846;2023-12-28T09:13:15;37.72;;;7.93;;
52786;SDS011;38661;53.152;5.846;2023-12-28T09:15:42;46.83;;;8.85;;
52786;SDS011;38661;53.152;5.846;2023-12-28T09:18:08;34.20;;;7.38;;
52786;SDS011;38661;53.152;5.846;2023-12-28T09:20:33;26.83;;;7.00;;
52786;SDS011;38661;53.152;5.846;2023-12-28T09:23:00;35.33;;;7.95;;
52786;SDS011;38661;53.152;5.846;2023-12-28T09:25:26;29.05;;;6.43;;
52786;SDS011;38661;53.152;5.846;2023-12-28T09:27:52;39.78;;;8.77;;
52786;SDS011;38661;53.152;5.846;2023-12-28T09:30:18;34.60;;;8.60;;
52786;SDS011;38661;53.152;5.846;2023-12-28T09:32:44;32.55;;;8.15;;
52786;SDS011;38661;53.152;5.846;2023-12-28T09:35:10;33.75;;;7.15;;
52786;SDS011;38661;53.152;5.846;2023-12-28T09:37:36;30.98;;;7.40;;
52786;SDS011;38661;53.152;5.846;2023-12-28T09:40:01;41.15;;;7.95;;
52786;SDS011;38661;53.152;5.846;2023-12-28T09:43:12;40.90;;;8.07;;
52786;SDS011;38661;53.152;5.846;2023-12-28T09:45:37;32.60;;;7.03;;
52786;SDS011;38661;53.152;5.846;2023-12-28T09:48:03;38.60;;;7.78;;
52786;SDS011;38661;53.152;5.846;2023-12-28T09:50:31;31.63;;;7.47;;
52786;SDS011;38661;53.152;5.846;2023-12-28T09:52:57;34.50;;;8.90;;
52786;SDS011;38661;53.152;5.846;2023-12-28T09:55:24;22.80;;;6.47;;
52786;SDS011;38661;53.152;5.846;2023-12-28T09:57:50;39.75;;;8.75;;
52786;SDS011;38661;53.152;5.846;2023-12-28T10:00:17;30.92;;;7.15;;
52786;SDS011;38661;53.152;5.846;2023-12-28T10:02:43;40.90;;;7.47;;
52786;SDS011;38661;53.152;5.846;2023-12-28T10:05:15;23.35;;;6.50;;
52786;SDS011;38661;53.152;5.846;2023-12-28T10:07:42;30.67;;;6.70;;
52786;SDS011;38661;53.152;5.846;2023-12-28T10:10:08;31.38;;;7.38;;
52786;SDS011;38661;53.152;5.846;2023-12-28T10:12:35;29.25;;;6.30;;
52786;SDS011;38661;53.152;5.846;2023-12-28T10:15:01;26.35;;;6.93;;
52786;SDS011;38661;53.152;5.846;2023-12-28T10:17:27;34.95;;;7.78;;
52786;SDS011;38661;53.152;5.846;2023-12-28T10:19:53;26.35;;;5.45;;
52786;SDS011;38661;53.152;5.846;2023-12-28T10:22:21;28.00;;;5.35;;
52786;SDS011;38661;53.152;5.846;2023-12-28T10:24:46;32.22;;;6.63;;
52786;SDS011;38661;53.152;5.846;2023-12-28T10:27:15;30.05;;;7.57;;
52786;SDS011;38661;53.152;5.846;2023-12-28T10:29:42;23.85;;;6.55;;
52786;SDS011;38661;53.152;5.846;2023-12-28T10:32:07;32.42;;;7.53;;
52786;SDS011;38661;53.152;5.846;2023-12-28T10:34:33;32.92;;;7.80;;
52786;SDS011;38661;53.152;5.846;2023-12-28T10:36:59;31.45;;;6.53;;
52786;SDS011;38661;53.152;5.846;2023-12-28T10:39:27;26.98;;;6.50;;
52786;SDS011;38661;53.152;5.846;2023-12-28T10:41:58;36.40;;;7.20;;
52786;SDS011;38661;53.152;5.846;2023-12-28T10:44:29;39.45;;;7.55;;
52786;SDS011;38661;53.152;5.846;2023-12-28T10:47:00;35.30;;;9.77;;
52786;SDS011;38661;53.152;5.846;2023-12-28T10:49:27;27.90;;;8.90;;
52786;SDS011;38661;53.152;5.846;2023-12-28T10:51:58;33.90;;;6.78;;
52786;SDS011;38661;53.152;5.846;2023-12-28T11:02:25;28.65;;;6.18;;
52786;SDS011;38661;53.152;5.846;2023-12-28T11:04:57;27.58;;;6.43;;
52786;SDS011;38661;53.152;5.846;2023-12-28T11:07:24;37.13;;;8.27;;
52786;SDS011;38661;53.152;5.846;2023-12-28T11:09:57;26.77;;;6.80;;
52786;SDS011;38661;53.152;5.846;2023-12-28T11:12:25;29.65;;;6.40;;
52786;SDS011;38661;53.152;5.846;2023-12-28T11:14:52;25.08;;;5.80;;
52786;SDS011;38661;53.152;5.846;2023-12-28T11:17:20;25.20;;;6.10;;
52786;SDS011;38661;53.152;5.846;2023-12-28T11:19:47;29.27;;;7.82;;
52786;SDS011;38661;53.152;5.846;2023-12-28T11:22:14;29.55;;;6.32;;
52786;SDS011;38661;53.152;5.846;2023-12-28T11:24:40;37.78;;;6.50;;
52786;SDS011;38661;53.152;5.846;2023-12-28T11:27:06;35.13;;;8.80;;
52786;SDS011;38661;53.152;5.846;2023-12-28T11:29:32;25.67;;;6.82;;
52786;SDS011;38661;53.152;5.846;2023-12-28T11:31:58;24.60;;;7.32;;
52786;SDS011;38661;53.152;5.846;2023-12-28T11:34:24;44.80;;;8.73;;
52786;SDS011;38661;53.152;5.846;2023-12-28T11:36:51;29.77;;;7.03;;
52786;SDS011;38661;53.152;5.846;2023-12-28T11:42:01;37.83;;;7.57;;
52786;SDS011;38661;53.152;5.846;2023-12-28T11:44:31;29.30;;;7.05;;
52786;SDS011;38661;53.152;5.846;2023-12-28T11:46:57;33.25;;;7.95;;
52786;SDS011;38661;53.152;5.846;2023-12-28T11:49:26;37.30;;;8.05;;
52786;SDS011;38661;53.152;5.846;2023-12-28T11:51:54;27.27;;;6.43;;
52786;SDS011;38661;53.152;5.846;2023-12-28T11:54:21;30.40;;;7.82;;
52786;SDS011;38661;53.152;5.846;2023-12-28T11:56:47;33.50;;;9.40;;
52786;SDS011;38661;53.152;5.846;2023-12-28T11:59:13;38.65;;;8.00;;
52786;SDS011;38661;53.152;5.846;2023-12-28T12:01:39;25.67;;;5.72;;
52786;SDS011;38661;53.152;5.846;2023-12-28T12:04:05;26.05;;;5.47;;
52786;SDS011;38661;53.152;5.846;2023-12-28T12:06:32;33.42;;;8.93;;
52786;SDS011;38661;53.152;5.846;2023-12-28T12:08:58;27.50;;;6.47;;
52786;SDS011;38661;53.152;5.846;2023-12-28T12:11:24;39.20;;;8.93;;
52786;SDS011;38661;53.152;5.846;2023-12-28T12:13:51;32.83;;;6.72;;
52786;SDS011;38661;53.152;5.846;2023-12-28T12:16:17;38.15;;;8.25;;
52786;SDS011;38661;53.152;5.846;2023-12-28T12:18:43;30.00;;;7.35;;
52786;SDS011;38661;53.152;5.846;2023-12-28T12:21:09;44.38;;;8.93;;
52786;SDS011;38661;53.152;5.846;2023-12-28T12:23:35;41.58;;;8.88;;
52786;SDS011;38661;53.152;5.846;2023-12-28T12:26:00;37.58;;;8.35;;
52786;SDS011;38661;53.152;5.846;2023-12-28T12:28:29;33.97;;;6.40;;
52786;SDS011;38661;53.152;5.846;2023-12-28T12:30:55;40.22;;;7.25;;
52786;SDS011;38661;53.152;5.846;2023-12-28T12:33:21;34.65;;;6.78;;
52786;SDS011;38661;53.152;5.846;2023-12-28T12:35:48;39.38;;;7.95;;
52786;SDS011;38661;53.152;5.846;2023-12-28T12:38:15;31.60;;;7.45;;
52786;SDS011;38661;53.152;5.846;2023-12-28T12:40:41;28.65;;;8.88;;
52786;SDS011;38661;53.152;5.846;2023-12-28T12:43:07;41.05;;;15.38;;
52786;SDS011;38661;53.152;5.846;2023-12-28T12:45:34;29.63;;;7.45;;
52786;SDS011;38661;53.152;5.846;2023-12-28T12:48:01;37.92;;;8.88;;
52786;SDS011;38661;53.152;5.846;2023-12-28T12:50:28;39.53;;;14.00;;
52786;SDS011;38661;53.152;5.846;2023-12-28T12:52:54;34.03;;;9.68;;
52786;SDS011;38661;53.152;5.846;2023-12-28T12:55:20;23.52;;;6.07;;
52786;SDS011;38661;53.152;5.846;2023-12-28T12:57:45;29.48;;;8.63;;
52786;SDS011;38661;53.152;5.846;2023-12-28T13:00:11;34.95;;;8.98;;
52786;SDS011;38661;53.152;5.846;2023-12-28T13:02:38;25.15;;;6.82;;
52786;SDS011;38661;53.152;5.846;2023-12-28T13:05:04;28.23;;;7.43;;
52786;SDS011;38661;53.152;5.846;2023-12-28T13:07:30;36.55;;;10.13;;
52786;SDS011;38661;53.152;5.846;2023-12-28T13:09:57;38.95;;;7.95;;
52786;SDS011;38661;53.152;5.846;2023-12-28T13:12:22;32.05;;;7.18;;
52786;SDS011;38661;53.152;5.846;2023-12-28T13:14:49;21.88;;;5.40;;
52786;SDS011;38661;53.152;5.846;2023-12-28T13:17:15;34.75;;;7.32;;
52786;SDS011;38661;53.152;5.846;2023-12-28T13:19:41;17.52;;;3.92;;
52786;SDS011;38661;53.152;5.846;2023-12-28T13:22:07;31.38;;;8.43;;
52786;SDS011;38661;53.152;5.846;2023-12-28T13:24:33;34.25;;;8.43;;
52786;SDS011;38661;53.152;5.846;2023-12-28T13:26:58;34.88;;;12.93;;
52786;SDS011;38661;53.152;5.846;2023-12-28T13:29:25;35.47;;;7.00;;
52786;SDS011;38661;53.152;5.846;2023-12-28T13:31:51;33.80;;;8.77;;
52786;SDS011;38661;53.152;5.846;2023-12-28T13:34:17;32.45;;;7.30;;
52786;SDS011;38661;53.152;5.846;2023-12-28T13:36:44;24.02;;;6.70;;
52786;SDS011;38661;53.152;5.846;2023-12-28T13:39:10;29.30;;;7.50;;
52786;SDS011;38661;53.152;5.846;2023-12-28T13:41:39;27.60;;;6.80;;
52786;SDS011;38661;53.152;5.846;2023-12-28T13:44:05;37.13;;;8.50;;
52786;SDS011;38661;53.152;5.846;2023-12-28T13:46:35;26.85;;;6.80;;
52786;SDS011;38661;53.152;5.846;2023-12-28T13:49:01;39.15;;;7.75;;
52786;SDS011;38661;53.152;5.846;2023-12-28T13:51:29;42.58;;;8.15;;
52786;SDS011;38661;53.152;5.846;2023-12-28T13:53:55;22.08;;;6.35;;
52786;SDS011;38661;53.152;5.846;2023-12-28T13:56:22;26.15;;;6.80;;
52786;SDS011;38661;53.152;5.846;2023-12-28T13:58:48;26.60;;;6.43;;
52786;SDS011;38661;53.152;5.846;2023-12-28T14:01:13;29.95;;;6.30;;
52786;SDS011;38661;53.152;5.846;2023-12-28T14:03:39;31.55;;;5.60;;
52786;SDS011;38661;53.152;5.846;2023-12-28T14:06:05;27.65;;;6.20;;
52786;SDS011;38661;53.152;5.846;2023-12-28T14:08:30;26.23;;;6.25;;
52786;SDS011;38661;53.152;5.846;2023-12-28T14:10:56;23.50;;;5.90;;
52786;SDS011;38661;53.152;5.846;2023-12-28T14:13:22;25.55;;;5.63;;
52786;SDS011;38661;53.152;5.846;2023-12-28T14:15:48;25.88;;;5.32;;
52786;SDS011;38661;53.152;5.846;2023-12-28T14:18:13;29.98;;;7.25;;
52786;SDS011;38661;53.152;5.846;2023-12-28T14:20:39;28.92;;;6.53;;
52786;SDS011;38661;53.152;5.846;2023-12-28T14:23:05;23.10;;;6.38;;
52786;SDS011;38661;53.152;5.846;2023-12-28T14:25:31;27.52;;;5.90;;
52786;SDS011;38661;53.152;5.846;2023-12-28T14:27:57;28.77;;;6.05;;
52786;SDS011;38661;53.152;5.846;2023-12-28T14:30:23;32.17;;;6.80;;
52786;SDS011;38661;53.152;5.846;2023-12-28T14:32:49;33.03;;;7.40;;
52786;SDS011;38661;53.152;5.846;2023-12-28T14:35:15;23.65;;;5.18;;
52786;SDS011;38661;53.152;5.846;2023-12-28T14:37:42;21.95;;;5.70;;
52786;SDS011;38661;53.152;5.846;2023-12-28T14:40:09;30.58;;;7.35;;
52786;SDS011;38661;53.152;5.846;2023-12-28T14:42:36;31.10;;;6.18;;
52786;SDS011;38661;53.152;5.846;2023-12-28T14:45:03;24.77;;;6.70;;